sensor_id;sensor_type;location;lat;lon;timestamp;temperature;humidity
5128;DHT22;2582;48.770;9.190;2023-03-01T00:02:05;1.40;99.90
5128;DHT22;2582;48.770;9.190;2023-03-01T00:04:31;1.40;99.90
5128;DHT22;2582;48.770;9.190;2023-03-01T00:06:57;1.40;99.90
5128;DHT22;2582;48.770;9.190;2023-03-01T00:09:23;1.40;99.90
5128;DHT22;2582;48.770;9.190;2023-03-01T00:11:49;1.40;99.90
5128;DHT22;2582;48.770;9.190;2023-03-01T00:14:14;1.40;99.90
5128;DHT22;2582;48.770;9.190;2023-03-01T00:16:43;1.30;99.90
5128;DHT22;2582;48.770;9.190;2023-03-01T00:19:12;1.30;99.90
5128;DHT22;2582;48.770;9.190;2023-03-01T00:21:38;1.10;99.90
5128;DHT22;2582;48.770;9.190;2023-03-01T00:24:03;1.10;99.90
5128;DHT22;2582;48.770;9.190;2023-03-01T00:26:29;1.20;99.90
5128;DHT22;2582;48.770;9.190;2023-03-01T00:28:57;1.20;99.90
5128;DHT22;2582;48.770;9.190;2023-03-01T00:31:25;1.20;99.90
5128;DHT22;2582;48.770;9.190;2023-03-01T00:33:55;1.20;99.90
5128;DHT22;2582;48.770;9.190;2023-03-01T00:36:30;1.30;99.90
5128;DHT22;2582;48.770;9.190;2023-03-01T00:38:56;1.20;99.90
5128;DHT22;2582;48.770;9.190;2023-03-01T00:41:22;1.30;99.90
5128;DHT22;2582;48.770;9.190;2023-03-01T00:43:49;1.20;99.90
5128;DHT22;2582;48.770;9.190;2023-03-01T00:46:17;1.10;99.90
5128;DHT22;2582;48.770;9.190;2023-03-01T00:48:44;1.20;99.90
5128;DHT22;2582;48.770;9.190;2023-03-01T00:51:16;1.30;99.90
5128;DHT22;2582;48.770;9.190;2023-03-01T00:53:42;1.10;99.90
5128;DHT22;2582;48.770;9.190;2023-03-01T00:56:13;1.10;99.90
5128;DHT22;2582;48.770;9.190;2023-03-01T00:58:39;1.10;99.90
5128;DHT22;2582;48.770;9.190;2023-03-01T01:01:16;1.10;99.90
5128;DHT22;2582;48.770;9.190;2023-03-01T01:08:48;1.10;99.90
5128;DHT22;2582;48.770;9.190;2023-03-01T01:11:15;1.10;99.90
5128;DHT22;2582;48.770;9.190;2023-03-01T01:13:41;1.00;99.90
5128;DHT22;2582;48.770;9.190;2023-03-01T01:16:07;1.00;99.90
5128;DHT22;2582;48.770;9.190;2023-03-01T01:18:33;1.00;99.90
5128;DHT22;2582;48.770;9.190;2023-03-01T01:21:04;1.10;99.90
5128;DHT22;2582;48.770;9.190;2023-03-01T01:23:30;1.00;99.90
5128;DHT22;2582;48.770;9.190;2023-03-01T01:25:56;0.70;99.90
5128;DHT22;2582;48.770;9.190;2023-03-01T01:28:22;0.70;99.90
5128;DHT22;2582;48.770;9.190;2023-03-01T01:30:47;0.70;99.90
5128;DHT22;2582;48.770;9.190;2023-03-01T01:33:13;0.70;99.90
5128;DHT22;2582;48.770;9.190;2023-03-01T01:35:38;0.70;99.90
5128;DHT22;2582;48.770;9.190;2023-03-01T01:38:04;0.80;99.90
5128;DHT22;2582;48.770;9.190;2023-03-01T01:40:29;0.80;99.90
5128;DHT22;2582;48.770;9.190;2023-03-01T01:42:55;0.70;99.90
5128;DHT22;2582;48.770;9.190;2023-03-01T01:45:28;0.60;99.90
5128;DHT22;2582;48.770;9.190;2023-03-01T01:47:57;0.70;99.90
5128;DHT22;2582;48.770;9.190;2023-03-01T01:50:24;0.80;99.90
5128;DHT22;2582;48.770;9.190;2023-03-01T01:52:51;0.70;99.90
5128;DHT22;2582;48.770;9.190;2023-03-01T01:55:21;0.80;99.90
5128;DHT22;2582;48.770;9.190;2023-03-01T01:57:53;0.80;99.90
5128;DHT22;2582;48.770;9.190;2023-03-01T02:00:26;0.80;99.90
5128;DHT22;2582;48.770;9.190;2023-03-01T02:03:02;0.80;99.90
5128;DHT22;2582;48.770;9.190;2023-03-01T02:05:51;0.90;99.90
5128;DHT22;2582;48.770;9.190;2023-03-01T02:08:20;1.00;99.90
5128;DHT22;2582;48.770;9.190;2023-03-01T02:10:47;1.10;99.90
5128;DHT22;2582;48.770;9.190;2023-03-01T02:13:15;1.20;99.90
5128;DHT22;2582;48.770;9.190;2023-03-01T02:15:41;1.10;99.90
5128;DHT22;2582;48.770;9.190;2023-03-01T02:18:10;1.10;99.90
5128;DHT22;2582;48.770;9.190;2023-03-01T02:23:34;1.30;99.90
5128;DHT22;2582;48.770;9.190;2023-03-01T02:29:00;1.60;99.90
5128;DHT22;2582;48.770;9.190;2023-03-01T02:31:26;1.70;99.90
5128;DHT22;2582;48.770;9.190;2023-03-01T02:34:09;1.90;99.90
5128;DHT22;2582;48.770;9.190;2023-03-01T02:36:41;2.00;99.90
5128;DHT22;2582;48.770;9.190;2023-03-01T02:39:14;2.00;99.90
5128;DHT22;2582;48.770;9.190;2023-03-01T02:41:45;1.90;99.90
5128;DHT22;2582;48.770;9.190;2023-03-01T02:44:12;1.90;99.90
5128;DHT22;2582;48.770;9.190;2023-03-01T02:47:04;2.00;99.90
5128;DHT22;2582;48.770;9.190;2023-03-01T02:49:34;2.00;99.90
5128;DHT22;2582;48.770;9.190;2023-03-01T02:55:02;1.90;99.90
5128;DHT22;2582;48.770;9.190;2023-03-01T02:57:31;1.90;99.90
5128;DHT22;2582;48.770;9.190;2023-03-01T03:00:02;1.90;99.90
5128;DHT22;2582;48.770;9.190;2023-03-01T03:02:32;2.10;99.90
5128;DHT22;2582;48.770;9.190;2023-03-01T03:07:32;2.20;99.90
5128;DHT22;2582;48.770;9.190;2023-03-01T03:10:00;2.20;99.90
5128;DHT22;2582;48.770;9.190;2023-03-01T03:12:25;2.20;99.90
5128;DHT22;2582;48.770;9.190;2023-03-01T03:14:51;2.40;99.90
5128;DHT22;2582;48.770;9.190;2023-03-01T03:17:16;2.30;99.90
5128;DHT22;2582;48.770;9.190;2023-03-01T03:19:42;2.30;99.90
5128;DHT22;2582;48.770;9.190;2023-03-01T03:22:11;2.30;99.90
5128;DHT22;2582;48.770;9.190;2023-03-01T03:24:37;2.30;99.90
5128;DHT22;2582;48.770;9.190;2023-03-01T03:27:04;2.20;99.90
5128;DHT22;2582;48.770;9.190;2023-03-01T03:29:29;2.20;99.90
5128;DHT22;2582;48.770;9.190;2023-03-01T03:31:55;2.20;99.90
5128;DHT22;2582;48.770;9.190;2023-03-01T03:34:20;2.30;99.90
5128;DHT22;2582;48.770;9.190;2023-03-01T03:36:46;2.30;99.90
5128;DHT22;2582;48.770;9.190;2023-03-01T03:39:11;2.20;99.90
5128;DHT22;2582;48.770;9.190;2023-03-01T03:41:37;2.20;99.90
5128;DHT22;2582;48.770;9.190;2023-03-01T03:44:02;2.20;99.90
5128;DHT22;2582;48.770;9.190;2023-03-01T03:46:28;2.20;99.90
5128;DHT22;2582;48.770;9.190;2023-03-01T03:48:53;2.30;99.90
5128;DHT22;2582;48.770;9.190;2023-03-01T03:51:19;2.30;99.90
5128;DHT22;2582;48.770;9.190;2023-03-01T03:53:45;2.30;99.90
5128;DHT22;2582;48.770;9.190;2023-03-01T03:56:11;2.30;99.90
5128;DHT22;2582;48.770;9.190;2023-03-01T03:58:37;2.40;99.90
5128;DHT22;2582;48.770;9.190;2023-03-01T04:01:03;2.50;99.90
5128;DHT22;2582;48.770;9.190;2023-03-01T04:03:30;2.50;99.90
5128;DHT22;2582;48.770;9.190;2023-03-01T04:05:58;2.50;99.90
5128;DHT22;2582;48.770;9.190;2023-03-01T04:08:24;2.60;99.90
5128;DHT22;2582;48.770;9.190;2023-03-01T04:10:51;2.60;99.90
5128;DHT22;2582;48.770;9.190;2023-03-01T04:13:20;2.50;99.90
5128;DHT22;2582;48.770;9.190;2023-03-01T04:15:48;2.50;99.90
5128;DHT22;2582;48.770;9.190;2023-03-01T04:18:15;2.60;99.90
5128;DHT22;2582;48.770;9.190;2023-03-01T04:20:41;2.60;99.90
5128;DHT22;2582;48.770;9.190;2023-03-01T04:23:11;2.70;99.90
5128;DHT22;2582;48.770;9.190;2023-03-01T04:25:58;2.70;99.90
5128;DHT22;2582;48.770;9.190;2023-03-01T04:28:29;2.70;99.90
5128;DHT22;2582;48.770;9.190;2023-03-01T04:30:57;2.70;99.90
5128;DHT22;2582;48.770;9.190;2023-03-01T04:33:23;2.70;99.90
5128;DHT22;2582;48.770;9.190;2023-03-01T04:35:50;2.70;99.90
5128;DHT22;2582;48.770;9.190;2023-03-01T04:38:17;2.60;99.90
5128;DHT22;2582;48.770;9.190;2023-03-01T04:40:43;2.70;99.90
5128;DHT22;2582;48.770;9.190;2023-03-01T04:43:10;2.80;99.90
5128;DHT22;2582;48.770;9.190;2023-03-01T04:45:36;2.90;99.90
5128;DHT22;2582;48.770;9.190;2023-03-01T04:48:02;3.00;99.90
5128;DHT22;2582;48.770;9.190;2023-03-01T04:50:28;3.00;99.90
5128;DHT22;2582;48.770;9.190;2023-03-01T04:52:54;3.00;99.90
5128;DHT22;2582;48.770;9.190;2023-03-01T04:55:26;3.00;99.90
5128;DHT22;2582;48.770;9.190;2023-03-01T04:57:53;3.00;99.90
5128;DHT22;2582;48.770;9.190;2023-03-01T05:00:19;2.90;99.90
5128;DHT22;2582;48.770;9.190;2023-03-01T05:02:50;3.00;99.90
5128;DHT22;2582;48.770;9.190;2023-03-01T05:05:19;3.10;99.90
5128;DHT22;2582;48.770;9.190;2023-03-01T05:07:46;3.00;99.90
5128;DHT22;2582;48.770;9.190;2023-03-01T05:10:11;3.10;99.90
5128;DHT22;2582;48.770;9.190;2023-03-01T05:12:37;2.90;99.90
5128;DHT22;2582;48.770;9.190;2023-03-01T05:15:04;2.80;99.90
5128;DHT22;2582;48.770;9.190;2023-03-01T05:17:35;2.90;99.90
5128;DHT22;2582;48.770;9.190;2023-03-01T05:20:01;3.00;99.90
5128;DHT22;2582;48.770;9.190;2023-03-01T05:22:28;3.10;99.90
5128;DHT22;2582;48.770;9.190;2023-03-01T05:24:54;2.90;99.90
5128;DHT22;2582;48.770;9.190;2023-03-01T05:27:20;2.70;99.90
5128;DHT22;2582;48.770;9.190;2023-03-01T05:29:47;2.70;99.90
5128;DHT22;2582;48.770;9.190;2023-03-01T05:32:13;2.80;99.90
5128;DHT22;2582;48.770;9.190;2023-03-01T05:34:41;2.70;99.90
5128;DHT22;2582;48.770;9.190;2023-03-01T05:37:06;2.50;99.90
5128;DHT22;2582;48.770;9.190;2023-03-01T05:39:33;2.30;99.90
5128;DHT22;2582;48.770;9.190;2023-03-01T05:42:00;2.40;99.90
5128;DHT22;2582;48.770;9.190;2023-03-01T05:44:28;2.50;99.90
5128;DHT22;2582;48.770;9.190;2023-03-01T05:46:54;2.50;99.90
5128;DHT22;2582;48.770;9.190;2023-03-01T05:49:21;2.80;99.90
5128;DHT22;2582;48.770;9.190;2023-03-01T05:51:50;2.80;99.90
5128;DHT22;2582;48.770;9.190;2023-03-01T05:54:17;2.90;99.90
5128;DHT22;2582;48.770;9.190;2023-03-01T05:56:44;2.80;99.90
5128;DHT22;2582;48.770;9.190;2023-03-01T05:59:10;2.60;99.90
5128;DHT22;2582;48.770;9.190;2023-03-01T06:01:35;2.60;99.90
5128;DHT22;2582;48.770;9.190;2023-03-01T06:04:02;2.80;99.90
5128;DHT22;2582;48.770;9.190;2023-03-01T06:06:28;2.80;99.90
5128;DHT22;2582;48.770;9.190;2023-03-01T06:08:54;3.00;99.90
5128;DHT22;2582;48.770;9.190;2023-03-01T06:11:20;3.00;99.90
5128;DHT22;2582;48.770;9.190;2023-03-01T06:13:46;3.00;99.90
5128;DHT22;2582;48.770;9.190;2023-03-01T06:16:13;3.10;99.90
5128;DHT22;2582;48.770;9.190;2023-03-01T06:18:40;2.80;99.90
5128;DHT22;2582;48.770;9.190;2023-03-01T06:21:07;2.80;99.90
5128;DHT22;2582;48.770;9.190;2023-03-01T06:23:33;2.80;99.90
5128;DHT22;2582;48.770;9.190;2023-03-01T06:25:58;2.80;99.90
5128;DHT22;2582;48.770;9.190;2023-03-01T06:28:24;3.00;99.90
5128;DHT22;2582;48.770;9.190;2023-03-01T06:30:50;3.10;99.90
5128;DHT22;2582;48.770;9.190;2023-03-01T06:33:17;2.80;99.90
5128;DHT22;2582;48.770;9.190;2023-03-01T06:35:44;2.80;99.90
5128;DHT22;2582;48.770;9.190;2023-03-01T06:38:10;2.70;99.90
5128;DHT22;2582;48.770;9.190;2023-03-01T06:40:35;2.60;99.90
5128;DHT22;2582;48.770;9.190;2023-03-01T06:43:01;2.60;99.90
5128;DHT22;2582;48.770;9.190;2023-03-01T06:45:27;2.50;99.90
5128;DHT22;2582;48.770;9.190;2023-03-01T06:47:57;2.60;99.90
5128;DHT22;2582;48.770;9.190;2023-03-01T06:50:26;2.40;99.90
5128;DHT22;2582;48.770;9.190;2023-03-01T06:52:56;2.30;99.90
5128;DHT22;2582;48.770;9.190;2023-03-01T06:55:21;2.20;99.90
5128;DHT22;2582;48.770;9.190;2023-03-01T06:57:47;2.10;99.90
5128;DHT22;2582;48.770;9.190;2023-03-01T07:00:13;2.00;99.90
5128;DHT22;2582;48.770;9.190;2023-03-01T07:02:39;2.30;99.90
5128;DHT22;2582;48.770;9.190;2023-03-01T07:05:04;2.10;99.90
5128;DHT22;2582;48.770;9.190;2023-03-01T07:07:30;2.30;99.90
5128;DHT22;2582;48.770;9.190;2023-03-01T07:09:56;2.30;99.90
5128;DHT22;2582;48.770;9.190;2023-03-01T07:12:21;2.10;99.90
5128;DHT22;2582;48.770;9.190;2023-03-01T07:14:48;2.00;99.90
5128;DHT22;2582;48.770;9.190;2023-03-01T07:17:13;1.80;99.90
5128;DHT22;2582;48.770;9.190;2023-03-01T07:19:39;1.80;99.90
5128;DHT22;2582;48.770;9.190;2023-03-01T07:22:05;1.80;99.90
5128;DHT22;2582;48.770;9.190;2023-03-01T07:24:33;1.90;99.90
5128;DHT22;2582;48.770;9.190;2023-03-01T07:26:58;1.90;99.90
5128;DHT22;2582;48.770;9.190;2023-03-01T07:29:24;2.00;99.90
5128;DHT22;2582;48.770;9.190;2023-03-01T07:31:49;1.90;99.90
5128;DHT22;2582;48.770;9.190;2023-03-01T07:34:15;1.80;99.90
5128;DHT22;2582;48.770;9.190;2023-03-01T07:36:41;1.90;99.90
5128;DHT22;2582;48.770;9.190;2023-03-01T07:39:09;2.20;99.90
5128;DHT22;2582;48.770;9.190;2023-03-01T07:41:35;2.10;99.90
5128;DHT22;2582;48.770;9.190;2023-03-01T07:44:00;2.10;99.90
5128;DHT22;2582;48.770;9.190;2023-03-01T07:46:26;2.10;99.90
5128;DHT22;2582;48.770;9.190;2023-03-01T07:48:51;2.10;99.90
5128;DHT22;2582;48.770;9.190;2023-03-01T07:51:17;2.00;99.90
5128;DHT22;2582;48.770;9.190;2023-03-01T07:53:46;2.20;99.90
5128;DHT22;2582;48.770;9.190;2023-03-01T07:56:13;2.40;99.90
5128;DHT22;2582;48.770;9.190;2023-03-01T07:58:43;2.70;99.90
5128;DHT22;2582;48.770;9.190;2023-03-01T08:01:13;2.50;99.90
5128;DHT22;2582;48.770;9.190;2023-03-01T08:03:40;2.20;99.90
5128;DHT22;2582;48.770;9.190;2023-03-01T08:06:07;2.00;99.90
5128;DHT22;2582;48.770;9.190;2023-03-01T08:08:33;2.20;99.90
5128;DHT22;2582;48.770;9.190;2023-03-01T08:11:00;2.20;99.90
5128;DHT22;2582;48.770;9.190;2023-03-01T08:13:26;2.40;99.90
5128;DHT22;2582;48.770;9.190;2023-03-01T08:15:52;2.60;99.90
5128;DHT22;2582;48.770;9.190;2023-03-01T08:18:19;2.70;99.90
5128;DHT22;2582;48.770;9.190;2023-03-01T08:20:46;2.70;99.90
5128;DHT22;2582;48.770;9.190;2023-03-01T08:23:12;2.70;99.90
5128;DHT22;2582;48.770;9.190;2023-03-01T08:25:38;2.80;99.90
5128;DHT22;2582;48.770;9.190;2023-03-01T08:28:04;2.70;99.90
5128;DHT22;2582;48.770;9.190;2023-03-01T08:30:30;2.70;99.90
5128;DHT22;2582;48.770;9.190;2023-03-01T08:32:55;2.70;99.90
5128;DHT22;2582;48.770;9.190;2023-03-01T08:35:21;2.70;99.90
5128;DHT22;2582;48.770;9.190;2023-03-01T08:37:47;2.90;99.90
5128;DHT22;2582;48.770;9.190;2023-03-01T08:40:13;3.00;99.90
5128;DHT22;2582;48.770;9.190;2023-03-01T08:42:40;2.80;99.90
5128;DHT22;2582;48.770;9.190;2023-03-01T08:45:07;2.60;99.90
5128;DHT22;2582;48.770;9.190;2023-03-01T08:47:33;2.70;99.90
5128;DHT22;2582;48.770;9.190;2023-03-01T08:49:59;2.70;99.90
5128;DHT22;2582;48.770;9.190;2023-03-01T08:52:25;2.70;99.90
5128;DHT22;2582;48.770;9.190;2023-03-01T08:54:51;2.70;99.90
5128;DHT22;2582;48.770;9.190;2023-03-01T08:57:17;2.70;99.90
5128;DHT22;2582;48.770;9.190;2023-03-01T08:59:43;2.80;99.90
5128;DHT22;2582;48.770;9.190;2023-03-01T09:02:12;3.00;99.90
5128;DHT22;2582;48.770;9.190;2023-03-01T09:04:38;2.80;99.90
5128;DHT22;2582;48.770;9.190;2023-03-01T09:07:04;3.00;99.90
5128;DHT22;2582;48.770;9.190;2023-03-01T09:09:30;3.20;99.90
5128;DHT22;2582;48.770;9.190;2023-03-01T09:11:55;3.10;99.90
5128;DHT22;2582;48.770;9.190;2023-03-01T09:14:21;3.10;99.90
5128;DHT22;2582;48.770;9.190;2023-03-01T09:16:46;3.20;99.90
5128;DHT22;2582;48.770;9.190;2023-03-01T09:19:12;3.20;99.90
5128;DHT22;2582;48.770;9.190;2023-03-01T09:21:38;3.10;99.90
5128;DHT22;2582;48.770;9.190;2023-03-01T09:24:03;3.10;99.90
5128;DHT22;2582;48.770;9.190;2023-03-01T09:26:29;3.30;99.90
5128;DHT22;2582;48.770;9.190;2023-03-01T09:28:56;3.60;99.90
5128;DHT22;2582;48.770;9.190;2023-03-01T09:31:23;3.40;99.90
5128;DHT22;2582;48.770;9.190;2023-03-01T09:33:51;3.40;99.90
5128;DHT22;2582;48.770;9.190;2023-03-01T09:36:20;3.40;99.90
5128;DHT22;2582;48.770;9.190;2023-03-01T09:38:47;3.50;99.90
5128;DHT22;2582;48.770;9.190;2023-03-01T09:46:40;3.70;99.90
5128;DHT22;2582;48.770;9.190;2023-03-01T09:49:14;4.00;99.90
5128;DHT22;2582;48.770;9.190;2023-03-01T09:51:43;4.20;99.90
5128;DHT22;2582;48.770;9.190;2023-03-01T09:54:13;4.40;99.90
5128;DHT22;2582;48.770;9.190;2023-03-01T09:56:47;4.60;99.90
5128;DHT22;2582;48.770;9.190;2023-03-01T10:02:14;4.60;99.90
5128;DHT22;2582;48.770;9.190;2023-03-01T10:04:47;4.60;99.90
5128;DHT22;2582;48.770;9.190;2023-03-01T10:09:57;4.70;99.90
5128;DHT22;2582;48.770;9.190;2023-03-01T10:12:27;4.80;99.90
5128;DHT22;2582;48.770;9.190;2023-03-01T10:15:14;4.80;99.90
5128;DHT22;2582;48.770;9.190;2023-03-01T10:17:52;5.00;99.90
5128;DHT22;2582;48.770;9.190;2023-03-01T10:20:23;5.10;99.90
5128;DHT22;2582;48.770;9.190;2023-03-01T10:22:50;5.00;99.90
5128;DHT22;2582;48.770;9.190;2023-03-01T10:25:41;4.80;99.90
5128;DHT22;2582;48.770;9.190;2023-03-01T10:30:43;5.50;99.90
5128;DHT22;2582;48.770;9.190;2023-03-01T10:33:23;5.60;99.90
5128;DHT22;2582;48.770;9.190;2023-03-01T10:35:50;5.60;99.90
5128;DHT22;2582;48.770;9.190;2023-03-01T10:38:16;5.80;99.90
5128;DHT22;2582;48.770;9.190;2023-03-01T10:40:56;5.80;99.90
5128;DHT22;2582;48.770;9.190;2023-03-01T10:43:57;5.80;99.90
5128;DHT22;2582;48.770;9.190;2023-03-01T10:46:27;5.90;99.90
5128;DHT22;2582;48.770;9.190;2023-03-01T10:51:45;6.10;99.90
5128;DHT22;2582;48.770;9.190;2023-03-01T10:54:26;5.80;99.90
5128;DHT22;2582;48.770;9.190;2023-03-01T10:57:04;5.80;99.90
5128;DHT22;2582;48.770;9.190;2023-03-01T10:59:36;5.50;99.90
5128;DHT22;2582;48.770;9.190;2023-03-01T11:04:27;5.80;99.90
5128;DHT22;2582;48.770;9.190;2023-03-01T11:06:59;5.90;99.90
5128;DHT22;2582;48.770;9.190;2023-03-01T11:09:25;6.20;99.90
5128;DHT22;2582;48.770;9.190;2023-03-01T11:11:57;6.40;99.90
5128;DHT22;2582;48.770;9.190;2023-03-01T11:14:30;6.50;99.90
5128;DHT22;2582;48.770;9.190;2023-03-01T11:17:21;6.30;99.90
5128;DHT22;2582;48.770;9.190;2023-03-01T11:22:51;6.80;99.30
5128;DHT22;2582;48.770;9.190;2023-03-01T11:25:23;7.70;98.60
5128;DHT22;2582;48.770;9.190;2023-03-01T11:27:49;9.10;96.50
5128;DHT22;2582;48.770;9.190;2023-03-01T11:30:34;9.60;93.90
5128;DHT22;2582;48.770;9.190;2023-03-01T11:33:15;9.40;94.20
5128;DHT22;2582;48.770;9.190;2023-03-01T11:35:54;10.10;92.50
5128;DHT22;2582;48.770;9.190;2023-03-01T11:38:26;11.30;91.30
5128;DHT22;2582;48.770;9.190;2023-03-01T11:46:28;12.80;83.80
5128;DHT22;2582;48.770;9.190;2023-03-01T12:10:25;13.00;75.60
5128;DHT22;2582;48.770;9.190;2023-03-01T12:18:06;13.50;73.10
5128;DHT22;2582;48.770;9.190;2023-03-01T12:34:21;14.80;67.80
5128;DHT22;2582;48.770;9.190;2023-03-01T12:36:57;14.30;67.80
5128;DHT22;2582;48.770;9.190;2023-03-01T12:48:17;12.10;73.20
5128;DHT22;2582;48.770;9.190;2023-03-01T12:50:50;13.00;71.90
5128;DHT22;2582;48.770;9.190;2023-03-01T12:53:32;13.30;71.10
5128;DHT22;2582;48.770;9.190;2023-03-01T12:56:06;12.70;72.20
5128;DHT22;2582;48.770;9.190;2023-03-01T13:02:14;15.20;68.70
5128;DHT22;2582;48.770;9.190;2023-03-01T13:05:07;16.90;63.20
5128;DHT22;2582;48.770;9.190;2023-03-01T13:08:18;16.30;64.90
5128;DHT22;2582;48.770;9.190;2023-03-01T13:11:01;17.00;61.40
5128;DHT22;2582;48.770;9.190;2023-03-01T13:13:28;15.70;61.20
5128;DHT22;2582;48.770;9.190;2023-03-01T13:15:54;14.10;66.00
5128;DHT22;2582;48.770;9.190;2023-03-01T13:20:50;14.30;66.20
5128;DHT22;2582;48.770;9.190;2023-03-01T13:31:03;16.80;59.60
5128;DHT22;2582;48.770;9.190;2023-03-01T13:35:58;14.90;61.60
5128;DHT22;2582;48.770;9.190;2023-03-01T13:41:02;14.70;64.30
5128;DHT22;2582;48.770;9.190;2023-03-01T13:43:34;13.80;65.10
5128;DHT22;2582;48.770;9.190;2023-03-01T13:46:07;15.50;64.30
5128;DHT22;2582;48.770;9.190;2023-03-01T13:48:33;16.10;61.90
5128;DHT22;2582;48.770;9.190;2023-03-01T13:51:03;16.00;60.30
5128;DHT22;2582;48.770;9.190;2023-03-01T13:53:32;15.20;62.70
5128;DHT22;2582;48.770;9.190;2023-03-01T13:56:20;16.60;61.50
5128;DHT22;2582;48.770;9.190;2023-03-01T13:58:53;17.20;60.00
5128;DHT22;2582;48.770;9.190;2023-03-01T14:03:49;15.00;62.00
5128;DHT22;2582;48.770;9.190;2023-03-01T14:06:19;14.70;63.40
5128;DHT22;2582;48.770;9.190;2023-03-01T14:08:48;14.30;64.40
5128;DHT22;2582;48.770;9.190;2023-03-01T14:11:39;14.70;64.90
5128;DHT22;2582;48.770;9.190;2023-03-01T14:19:30;14.20;64.20
5128;DHT22;2582;48.770;9.190;2023-03-01T14:22:12;13.90;65.60
5128;DHT22;2582;48.770;9.190;2023-03-01T14:24:47;14.60;64.60
5128;DHT22;2582;48.770;9.190;2023-03-01T14:27:15;14.50;65.40
5128;DHT22;2582;48.770;9.190;2023-03-01T14:29:41;14.20;64.20
5128;DHT22;2582;48.770;9.190;2023-03-01T14:34:36;11.90;69.20
5128;DHT22;2582;48.770;9.190;2023-03-01T14:37:32;11.60;71.60
5128;DHT22;2582;48.770;9.190;2023-03-01T14:39:59;11.30;72.90
5128;DHT22;2582;48.770;9.190;2023-03-01T14:42:29;10.70;74.40
5128;DHT22;2582;48.770;9.190;2023-03-01T14:44:57;10.30;76.00
5128;DHT22;2582;48.770;9.190;2023-03-01T14:47:29;10.20;77.10
5128;DHT22;2582;48.770;9.190;2023-03-01T14:50:15;10.40;77.60
5128;DHT22;2582;48.770;9.190;2023-03-01T14:52:46;10.20;77.50
5128;DHT22;2582;48.770;9.190;2023-03-01T14:55:19;10.30;78.70
5128;DHT22;2582;48.770;9.190;2023-03-01T14:57:48;10.50;77.60
5128;DHT22;2582;48.770;9.190;2023-03-01T15:00:28;10.10;77.50
5128;DHT22;2582;48.770;9.190;2023-03-01T15:02:56;9.70;79.80
5128;DHT22;2582;48.770;9.190;2023-03-01T15:05:32;9.60;80.30
5128;DHT22;2582;48.770;9.190;2023-03-01T15:08:00;9.50;81.30
5128;DHT22;2582;48.770;9.190;2023-03-01T15:10:33;9.40;81.90
5128;DHT22;2582;48.770;9.190;2023-03-01T15:13:21;9.60;82.30
5128;DHT22;2582;48.770;9.190;2023-03-01T15:15:49;9.50;82.40
5128;DHT22;2582;48.770;9.190;2023-03-01T15:18:21;9.60;82.70
5128;DHT22;2582;48.770;9.190;2023-03-01T15:20:48;9.70;82.70
5128;DHT22;2582;48.770;9.190;2023-03-01T15:23:26;9.90;82.60
5128;DHT22;2582;48.770;9.190;2023-03-01T15:25:54;10.00;81.20
5128;DHT22;2582;48.770;9.190;2023-03-01T15:28:29;10.10;80.90
5128;DHT22;2582;48.770;9.190;2023-03-01T15:31:00;10.00;80.80
5128;DHT22;2582;48.770;9.190;2023-03-01T15:35:59;10.10;81.10
5128;DHT22;2582;48.770;9.190;2023-03-01T15:38:52;9.90;82.70
5128;DHT22;2582;48.770;9.190;2023-03-01T15:43:48;9.80;83.40
5128;DHT22;2582;48.770;9.190;2023-03-01T15:46:25;9.70;82.60
5128;DHT22;2582;48.770;9.190;2023-03-01T15:48:54;9.60;83.10
5128;DHT22;2582;48.770;9.190;2023-03-01T15:51:27;9.70;82.80
5128;DHT22;2582;48.770;9.190;2023-03-01T15:53:54;9.60;82.70
5128;DHT22;2582;48.770;9.190;2023-03-01T15:56:20;9.50;83.00
5128;DHT22;2582;48.770;9.190;2023-03-01T15:58:45;9.30;83.40
5128;DHT22;2582;48.770;9.190;2023-03-01T16:01:15;9.10;83.80
5128;DHT22;2582;48.770;9.190;2023-03-01T16:03:44;9.20;84.10
5128;DHT22;2582;48.770;9.190;2023-03-01T16:06:11;9.00;84.00
5128;DHT22;2582;48.770;9.190;2023-03-01T16:08:38;8.90;84.40
5128;DHT22;2582;48.770;9.190;2023-03-01T16:11:13;8.80;84.40
5128;DHT22;2582;48.770;9.190;2023-03-01T16:13:39;8.80;84.90
5128;DHT22;2582;48.770;9.190;2023-03-01T16:16:04;8.80;84.80
5128;DHT22;2582;48.770;9.190;2023-03-01T16:18:30;8.70;84.90
5128;DHT22;2582;48.770;9.190;2023-03-01T16:20:56;8.60;85.00
5128;DHT22;2582;48.770;9.190;2023-03-01T16:23:21;8.50;85.40
5128;DHT22;2582;48.770;9.190;2023-03-01T16:25:50;8.50;85.70
5128;DHT22;2582;48.770;9.190;2023-03-01T16:28:16;8.60;85.80
5128;DHT22;2582;48.770;9.190;2023-03-01T16:30:45;8.50;85.90
5128;DHT22;2582;48.770;9.190;2023-03-01T16:33:11;8.50;85.60
5128;DHT22;2582;48.770;9.190;2023-03-01T16:35:39;8.60;85.90
5128;DHT22;2582;48.770;9.190;2023-03-01T16:38:05;8.50;85.80
5128;DHT22;2582;48.770;9.190;2023-03-01T16:40:31;8.40;85.70
5128;DHT22;2582;48.770;9.190;2023-03-01T16:42:57;8.50;86.10
5128;DHT22;2582;48.770;9.190;2023-03-01T16:45:27;8.50;86.20
5128;DHT22;2582;48.770;9.190;2023-03-01T16:47:53;8.50;86.60
5128;DHT22;2582;48.770;9.190;2023-03-01T16:50:18;8.60;86.50
5128;DHT22;2582;48.770;9.190;2023-03-01T16:52:44;8.60;86.70
5128;DHT22;2582;48.770;9.190;2023-03-01T16:55:10;8.50;86.70
5128;DHT22;2582;48.770;9.190;2023-03-01T16:57:37;8.40;86.90
5128;DHT22;2582;48.770;9.190;2023-03-01T17:00:08;8.40;87.20
5128;DHT22;2582;48.770;9.190;2023-03-01T17:02:38;8.40;87.40
5128;DHT22;2582;48.770;9.190;2023-03-01T17:05:05;8.60;87.50
5128;DHT22;2582;48.770;9.190;2023-03-01T17:07:32;8.50;87.10
5128;DHT22;2582;48.770;9.190;2023-03-01T17:10:02;8.50;87.30
5128;DHT22;2582;48.770;9.190;2023-03-01T17:12:28;8.60;87.30
5128;DHT22;2582;48.770;9.190;2023-03-01T17:14:54;8.80;87.40
5128;DHT22;2582;48.770;9.190;2023-03-01T17:17:19;8.90;87.60
5128;DHT22;2582;48.770;9.190;2023-03-01T17:19:45;8.80;88.70
5128;DHT22;2582;48.770;9.190;2023-03-01T17:22:11;8.60;89.80
5128;DHT22;2582;48.770;9.190;2023-03-01T17:24:39;8.60;90.50
5128;DHT22;2582;48.770;9.190;2023-03-01T17:27:06;8.40;90.80
5128;DHT22;2582;48.770;9.190;2023-03-01T17:29:32;8.30;91.30
5128;DHT22;2582;48.770;9.190;2023-03-01T17:31:58;8.10;91.60
5128;DHT22;2582;48.770;9.190;2023-03-01T17:34:24;8.00;92.30
5128;DHT22;2582;48.770;9.190;2023-03-01T17:36:50;7.80;92.60
5128;DHT22;2582;48.770;9.190;2023-03-01T17:39:17;7.80;93.00
5128;DHT22;2582;48.770;9.190;2023-03-01T17:41:46;7.60;93.30
5128;DHT22;2582;48.770;9.190;2023-03-01T17:44:11;7.50;93.50
5128;DHT22;2582;48.770;9.190;2023-03-01T17:46:37;7.30;94.00
5128;DHT22;2582;48.770;9.190;2023-03-01T17:49:03;7.10;94.60
5128;DHT22;2582;48.770;9.190;2023-03-01T17:51:28;6.90;95.10
5128;DHT22;2582;48.770;9.190;2023-03-01T17:53:54;6.80;95.80
5128;DHT22;2582;48.770;9.190;2023-03-01T17:56:19;6.70;96.20
5128;DHT22;2582;48.770;9.190;2023-03-01T17:58:45;6.70;96.60
5128;DHT22;2582;48.770;9.190;2023-03-01T18:01:16;6.60;96.90
5128;DHT22;2582;48.770;9.190;2023-03-01T18:03:42;6.60;97.50
5128;DHT22;2582;48.770;9.190;2023-03-01T18:06:14;6.50;97.80
5128;DHT22;2582;48.770;9.190;2023-03-01T18:08:39;6.60;98.10
5128;DHT22;2582;48.770;9.190;2023-03-01T18:11:05;6.50;98.40
5128;DHT22;2582;48.770;9.190;2023-03-01T18:13:32;6.40;98.60
5128;DHT22;2582;48.770;9.190;2023-03-01T18:15:57;6.40;99.30
5128;DHT22;2582;48.770;9.190;2023-03-01T18:18:26;6.30;99.80
5128;DHT22;2582;48.770;9.190;2023-03-01T18:20:59;6.20;99.90
5128;DHT22;2582;48.770;9.190;2023-03-01T18:23:26;6.10;99.90
5128;DHT22;2582;48.770;9.190;2023-03-01T18:25:56;6.10;99.90
5128;DHT22;2582;48.770;9.190;2023-03-01T18:28:21;6.00;99.90
5128;DHT22;2582;48.770;9.190;2023-03-01T18:30:58;6.00;99.90
5128;DHT22;2582;48.770;9.190;2023-03-01T18:33:24;6.00;99.90